sensor_id;sensor_type;location;lat;lon;timestamp;P1;durP1;ratioP1;P2;durP2;ratioP2
74741;SDS011;76291;48.288;16.314;2024-03-23T00:53:59;5.9;;;4.2;;
74741;SDS011;76291;48.288;16.314;2024-03-23T00:54:59;5.9;;;4.2;;
74741;SDS011;76291;48.288;16.314;2024-03-23T00:55:59;5.9;;;4.2;;
74741;SDS011;76291;48.288;16.314;2024-03-23T00:56:59;5.9;;;4.2;;
74741;SDS011;76291;48.288;16.314;2024-03-23T00:57:59;5.9;;;4.2;;
74741;SDS011;76291;48.288;16.314;2024-03-23T00:58:59;6.6;;;4.0;;
74741;SDS011;76291;48.288;16.314;2024-03-23T00:59:59;6.6;;;4.0;;
74741;SDS011;76291;48.288;16.314;2024-03-23T01:00:59;6.6;;;4.0;;
74741;SDS011;76291;48.288;16.314;2024-03-23T01:01:59;6.6;;;4.0;;
74741;SDS011;76291;48.288;16.314;2024-03-23T01:02:59;6.6;;;4.0;;
74741;SDS011;76291;48.288;16.314;2024-03-23T01:03:59;5.3;;;3.7;;
74741;SDS011;76291;48.288;16.314;2024-03-23T01:04:59;5.3;;;3.7;;
74741;SDS011;76291;48.288;16.314;2024-03-23T01:06:00;5.3;;;3.7;;
74741;SDS011;76291;48.288;16.314;2024-03-23T01:06:59;5.3;;;3.7;;
74741;SDS011;76291;48.288;16.314;2024-03-23T01:07:59;5.3;;;3.7;;
74741;SDS011;76291;48.288;16.314;2024-03-23T01:08:59;6.8;;;4.0;;
74741;SDS011;76291;48.288;16.314;2024-03-23T01:09:59;6.8;;;4.0;;
74741;SDS011;76291;48.288;16.314;2024-03-23T01:11:00;6.8;;;4.0;;
74741;SDS011;76291;48.288;16.314;2024-03-23T01:11:59;6.8;;;4.0;;
74741;SDS011;76291;48.288;16.314;2024-03-23T01:12:59;6.8;;;4.0;;
74741;SDS011;76291;48.288;16.314;2024-03-23T01:13:59;7.6;;;3.8;;
74741;SDS011;76291;48.288;16.314;2024-03-23T01:14:59;7.6;;;3.8;;
74741;SDS011;76291;48.288;16.314;2024-03-23T01:15:59;7.6;;;3.8;;
74741;SDS011;76291;48.288;16.314;2024-03-23T01:16:59;7.6;;;3.8;;
74741;SDS011;76291;48.288;16.314;2024-03-23T01:17:59;7.6;;;3.8;;
74741;SDS011;76291;48.288;16.314;2024-03-23T01:18:59;7.5;;;3.9;;
74741;SDS011;76291;48.288;16.314;2024-03-23T01:19:59;7.5;;;3.9;;
74741;SDS011;76291;48.288;16.314;2024-03-23T01:20:58;7.5;;;3.9;;
74741;SDS011;76291;48.288;16.314;2024-03-23T01:21:59;7.5;;;3.9;;
74741;SDS011;76291;48.288;16.314;2024-03-23T01:22:58;7.5;;;3.9;;
74741;SDS011;76291;48.288;16.314;2024-03-23T01:23:58;6.8;;;4.3;;
74741;SDS011;76291;48.288;16.314;2024-03-23T01:24:58;6.8;;;4.3;;
74741;SDS011;76291;48.288;16.314;2024-03-23T01:25:58;6.8;;;4.3;;
74741;SDS011;76291;48.288;16.314;2024-03-23T01:26:58;6.8;;;4.3;;
74741;SDS011;76291;48.288;16.314;2024-03-23T01:27:58;6.8;;;4.3;;
74741;SDS011;76291;48.288;16.314;2024-03-23T01:28:58;6.6;;;4.3;;
74741;SDS011;76291;48.288;16.314;2024-03-23T01:29:58;6.6;;;4.3;;
74741;SDS011;76291;48.288;16.314;2024-03-23T01:30:58;6.6;;;4.3;;
74741;SDS011;76291;48.288;16.314;2024-03-23T01:31:58;6.6;;;4.3;;
74741;SDS011;76291;48.288;16.314;2024-03-23T01:32:59;6.6;;;4.3;;
74741;SDS011;76291;48.288;16.314;2024-03-23T01:33:58;8.7;;;4.4;;
74741;SDS011;76291;48.288;16.314;2024-03-23T01:34:58;8.7;;;4.4;;
74741;SDS011;76291;48.288;16.314;2024-03-23T01:35:58;8.7;;;4.4;;
74741;SDS011;76291;48.288;16.314;2024-03-23T01:36:58;8.7;;;4.4;;
74741;SDS011;76291;48.288;16.314;2024-03-23T01:37:58;8.7;;;4.4;;
74741;SDS011;76291;48.288;16.314;2024-03-23T01:38:58;8.8;;;4.6;;
74741;SDS011;76291;48.288;16.314;2024-03-23T01:39:58;8.8;;;4.6;;
74741;SDS011;76291;48.288;16.314;2024-03-23T01:40:58;8.8;;;4.6;;
74741;SDS011;76291;48.288;16.314;2024-03-23T01:41:58;8.8;;;4.6;;
74741;SDS011;76291;48.288;16.314;2024-03-23T01:43:03;8.8;;;4.6;;
74741;SDS011;76291;48.288;16.314;2024-03-23T01:44:00;11.0;;;4.7;;
74741;SDS011;76291;48.288;16.314;2024-03-23T01:44:58;11.0;;;4.7;;
74741;SDS011;76291;48.288;16.314;2024-03-23T01:45:58;11.0;;;4.7;;
74741;SDS011;76291;48.288;16.314;2024-03-23T01:46:58;11.0;;;4.7;;
74741;SDS011;76291;48.288;16.314;2024-03-23T01:47:58;11.0;;;4.7;;
74741;SDS011;76291;48.288;16.314;2024-03-23T01:48:58;7.9;;;4.4;;
74741;SDS011;76291;48.288;16.314;2024-03-23T01:49:58;7.9;;;4.4;;
74741;SDS011;76291;48.288;16.314;2024-03-23T01:50:58;7.9;;;4.4;;
74741;SDS011;76291;48.288;16.314;2024-03-23T01:51:58;7.9;;;4.4;;
74741;SDS011;76291;48.288;16.314;2024-03-23T01:52:58;7.9;;;4.4;;
74741;SDS011;76291;48.288;16.314;2024-03-23T01:53:58;7.3;;;4.5;;
74741;SDS011;76291;48.288;16.314;2024-03-23T01:54:57;7.3;;;4.5;;
74741;SDS011;76291;48.288;16.314;2024-03-23T01:55:58;7.3;;;4.5;;
74741;SDS011;76291;48.288;16.314;2024-03-23T01:56:58;7.3;;;4.5;;
74741;SDS011;76291;48.288;16.314;2024-03-23T01:57:57;7.3;;;4.5;;
74741;SDS011;76291;48.288;16.314;2024-03-23T01:58:57;7.6;;;4.7;;
74741;SDS011;76291;48.288;16.314;2024-03-23T01:59:57;7.6;;;4.7;;
74741;SDS011;76291;48.288;16.314;2024-03-23T02:00:58;7.6;;;4.7;;
74741;SDS011;76291;48.288;16.314;2024-03-23T02:01:58;7.6;;;4.7;;
74741;SDS011;76291;48.288;16.314;2024-03-23T02:02:57;7.6;;;4.7;;
74741;SDS011;76291;48.288;16.314;2024-03-23T02:03:57;8.8;;;4.4;;
74741;SDS011;76291;48.288;16.314;2024-03-23T02:04:58;8.8;;;4.4;;
74741;SDS011;76291;48.288;16.314;2024-03-23T02:05:57;8.8;;;4.4;;
74741;SDS011;76291;48.288;16.314;2024-03-23T02:06:57;8.8;;;4.4;;
74741;SDS011;76291;48.288;16.314;2024-03-23T02:07:57;8.8;;;4.4;;
74741;SDS011;76291;48.288;16.314;2024-03-23T02:08:57;5.8;;;4.1;;
74741;SDS011;76291;48.288;16.314;2024-03-23T02:09:57;5.8;;;4.1;;
74741;SDS011;76291;48.288;16.314;2024-03-23T02:10:57;5.8;;;4.1;;
74741;SDS011;76291;48.288;16.314;2024-03-23T02:11:57;5.8;;;4.1;;
74741;SDS011;76291;48.288;16.314;2024-03-23T02:12:57;5.8;;;4.1;;
74741;SDS011;76291;48.288;16.314;2024-03-23T02:13:57;7.7;;;4.3;;
74741;SDS011;76291;48.288;16.314;2024-03-23T02:14:57;7.7;;;4.3;;
74741;SDS011;76291;48.288;16.314;2024-03-23T02:15:57;7.7;;;4.3;;
74741;SDS011;76291;48.288;16.314;2024-03-23T02:16:57;7.7;;;4.3;;
74741;SDS011;76291;48.288;16.314;2024-03-23T02:17:57;7.7;;;4.3;;
74741;SDS011;76291;48.288;16.314;2024-03-23T02:18:57;7.2;;;4.3;;
74741;SDS011;76291;48.288;16.314;2024-03-23T02:19:57;7.2;;;4.3;;
74741;SDS011;76291;48.288;16.314;2024-03-23T02:20:57;7.2;;;4.3;;
74741;SDS011;76291;48.288;16.314;2024-03-23T02:21:57;7.2;;;4.3;;
74741;SDS011;76291;48.288;16.314;2024-03-23T02:22:57;7.2;;;4.3;;
74741;SDS011;76291;48.288;16.314;2024-03-23T02:23:57;7.5;;;4.8;;
74741;SDS011;76291;48.288;16.314;2024-03-23T02:24:57;7.5;;;4.8;;
74741;SDS011;76291;48.288;16.314;2024-03-23T02:25:57;7.5;;;4.8;;
74741;SDS011;76291;48.288;16.314;2024-03-23T02:26:57;7.5;;;4.8;;
74741;SDS011;76291;48.288;16.314;2024-03-23T02:27:56;7.5;;;4.8;;
74741;SDS011;76291;48.288;16.314;2024-03-23T02:28:57;7.2;;;4.9;;
74741;SDS011;76291;48.288;16.314;2024-03-23T02:29:56;7.2;;;4.9;;
74741;SDS011;76291;48.288;16.314;2024-03-23T02:30:56;7.2;;;4.9;;
74741;SDS011;76291;48.288;16.314;2024-03-23T02:31:56;7.2;;;4.9;;
74741;SDS011;76291;48.288;16.314;2024-03-23T02:32:56;7.2;;;4.9;;
74741;SDS011;76291;48.288;16.314;2024-03-23T02:33:56;7.6;;;5.1;;
74741;SDS011;76291;48.288;16.314;2024-03-23T02:34:56;7.6;;;5.1;;
74741;SDS011;76291;48.288;16.314;2024-03-23T02:35:56;7.6;;;5.1;;
74741;SDS011;76291;48.288;16.314;2024-03-23T02:36:58;7.6;;;5.1;;
74741;SDS011;76291;48.288;16.314;2024-03-23T02:37:56;7.6;;;5.1;;
74741;SDS011;76291;48.288;16.314;2024-03-23T02:38:56;7.1;;;5.0;;
74741;SDS011;76291;48.288;16.314;2024-03-23T02:39:56;7.1;;;5.0;;
74741;SDS011;76291;48.288;16.314;2024-03-23T02:41:01;7.1;;;5.0;;
74741;SDS011;76291;48.288;16.314;2024-03-23T02:41:56;7.1;;;5.0;;
74741;SDS011;76291;48.288;16.314;2024-03-23T02:42:56;7.1;;;5.0;;
74741;SDS011;76291;48.288;16.314;2024-03-23T02:43:56;8.4;;;5.4;;
74741;SDS011;76291;48.288;16.314;2024-03-23T02:44:58;8.4;;;5.4;;
74741;SDS011;76291;48.288;16.314;2024-03-23T02:45:57;8.4;;;5.4;;
74741;SDS011;76291;48.288;16.314;2024-03-23T02:46:56;8.4;;;5.4;;
74741;SDS011;76291;48.288;16.314;2024-03-23T02:47:56;8.4;;;5.4;;
74741;SDS011;76291;48.288;16.314;2024-03-23T02:48:56;8.5;;;5.5;;
74741;SDS011;76291;48.288;16.314;2024-03-23T02:49:56;8.5;;;5.5;;
74741;SDS011;76291;48.288;16.314;2024-03-23T02:50:56;8.5;;;5.5;;
74741;SDS011;76291;48.288;16.314;2024-03-23T02:51:56;8.5;;;5.5;;
74741;SDS011;76291;48.288;16.314;2024-03-23T02:52:56;8.5;;;5.5;;
74741;SDS011;76291;48.288;16.314;2024-03-23T02:53:56;9.1;;;5.7;;
74741;SDS011;76291;48.288;16.314;2024-03-23T02:54:56;9.1;;;5.7;;
74741;SDS011;76291;48.288;16.314;2024-03-23T02:55:58;9.1;;;5.7;;
74741;SDS011;76291;48.288;16.314;2024-03-23T02:56:56;9.1;;;5.7;;
74741;SDS011;76291;48.288;16.314;2024-03-23T02:57:56;9.1;;;5.7;;
74741;SDS011;76291;48.288;16.314;2024-03-23T02:58:56;7.3;;;4.9;;
74741;SDS011;76291;48.288;16.314;2024-03-23T02:59:56;7.3;;;4.9;;
74741;SDS011;76291;48.288;16.314;2024-03-23T03:00:55;7.3;;;4.9;;
74741;SDS011;76291;48.288;16.314;2024-03-23T03:01:55;7.3;;;4.9;;
74741;SDS011;76291;48.288;16.314;2024-03-23T03:02:55;7.3;;;4.9;;
74741;SDS011;76291;48.288;16.314;2024-03-23T03:03:55;8.6;;;5.2;;
74741;SDS011;76291;48.288;16.314;2024-03-23T03:04:55;8.6;;;5.2;;
74741;SDS011;76291;48.288;16.314;2024-03-23T03:05:56;8.6;;;5.2;;
74741;SDS011;76291;48.288;16.314;2024-03-23T03:06:55;8.6;;;5.2;;
74741;SDS011;76291;48.288;16.314;2024-03-23T03:07:56;8.6;;;5.2;;
74741;SDS011;76291;48.288;16.314;2024-03-23T03:08:55;7.3;;;5.1;;
74741;SDS011;76291;48.288;16.314;2024-03-23T03:09:55;7.3;;;5.1;;
74741;SDS011;76291;48.288;16.314;2024-03-23T03:10:55;7.3;;;5.1;;
74741;SDS011;76291;48.288;16.314;2024-03-23T03:11:55;7.3;;;5.1;;
74741;SDS011;76291;48.288;16.314;2024-03-23T03:13:58;7.0;;;5.1;;
74741;SDS011;76291;48.288;16.314;2024-03-23T03:14:55;7.0;;;5.1;;
74741;SDS011;76291;48.288;16.314;2024-03-23T03:15:55;7.0;;;5.1;;
74741;SDS011;76291;48.288;16.314;2024-03-23T03:16:55;7.0;;;5.1;;
74741;SDS011;76291;48.288;16.314;2024-03-23T03:17:55;7.0;;;5.1;;
74741;SDS011;76291;48.288;16.314;2024-03-23T03:18:55;8.0;;;4.9;;
74741;SDS011;76291;48.288;16.314;2024-03-23T03:19:55;8.0;;;4.9;;
74741;SDS011;76291;48.288;16.314;2024-03-23T03:20:55;8.0;;;4.9;;
74741;SDS011;76291;48.288;16.314;2024-03-23T03:21:55;8.0;;;4.9;;
74741;SDS011;76291;48.288;16.314;2024-03-23T03:22:55;8.0;;;4.9;;
74741;SDS011;76291;48.288;16.314;2024-03-23T03:23:56;7.8;;;5.7;;
74741;SDS011;76291;48.288;16.314;2024-03-23T03:24:55;7.8;;;5.7;;
74741;SDS011;76291;48.288;16.314;2024-03-23T03:25:57;7.8;;;5.7;;
74741;SDS011;76291;48.288;16.314;2024-03-23T03:26:55;7.8;;;5.7;;
74741;SDS011;76291;48.288;16.314;2024-03-23T03:27:55;7.8;;;5.7;;
74741;SDS011;76291;48.288;16.314;2024-03-23T03:28:57;8.3;;;5.9;;
74741;SDS011;76291;48.288;16.314;2024-03-23T03:29:55;8.3;;;5.9;;
74741;SDS011;76291;48.288;16.314;2024-03-23T03:30:55;8.3;;;5.9;;
74741;SDS011;76291;48.288;16.314;2024-03-23T03:31:55;8.3;;;5.9;;
74741;SDS011;76291;48.288;16.314;2024-03-23T03:32:55;8.3;;;5.9;;
74741;SDS011;76291;48.288;16.314;2024-03-23T03:33:55;10.3;;;6.1;;
74741;SDS011;76291;48.288;16.314;2024-03-23T03:34:54;10.3;;;6.1;;
74741;SDS011;76291;48.288;16.314;2024-03-23T03:35:55;10.3;;;6.1;;
74741;SDS011;76291;48.288;16.314;2024-03-23T03:36:55;10.3;;;6.1;;
74741;SDS011;76291;48.288;16.314;2024-03-23T03:37:54;10.3;;;6.1;;
74741;SDS011;76291;48.288;16.314;2024-03-23T03:38:54;9.2;;;5.4;;
74741;SDS011;76291;48.288;16.314;2024-03-23T03:39:54;9.2;;;5.4;;
74741;SDS011;76291;48.288;16.314;2024-03-23T03:40:54;9.2;;;5.4;;
74741;SDS011;76291;48.288;16.314;2024-03-23T03:41:54;9.2;;;5.4;;
74741;SDS011;76291;48.288;16.314;2024-03-23T03:42:54;9.2;;;5.4;;
74741;SDS011;76291;48.288;16.314;2024-03-23T03:43:54;9.4;;;5.4;;
74741;SDS011;76291;48.288;16.314;2024-03-23T03:44:54;9.4;;;5.4;;
74741;SDS011;76291;48.288;16.314;2024-03-23T03:45:56;9.4;;;5.4;;
74741;SDS011;76291;48.288;16.314;2024-03-23T03:46:54;9.4;;;5.4;;
74741;SDS011;76291;48.288;16.314;2024-03-23T03:47:54;9.4;;;5.4;;
74741;SDS011;76291;48.288;16.314;2024-03-23T03:48:54;11.2;;;5.8;;
74741;SDS011;76291;48.288;16.314;2024-03-23T03:49:54;11.2;;;5.8;;
74741;SDS011;76291;48.288;16.314;2024-03-23T03:50:54;11.2;;;5.8;;
74741;SDS011;76291;48.288;16.314;2024-03-23T03:51:54;11.2;;;5.8;;
74741;SDS011;76291;48.288;16.314;2024-03-23T03:52:54;11.2;;;5.8;;
74741;SDS011;76291;48.288;16.314;2024-03-23T03:53:54;8.4;;;5.7;;
74741;SDS011;76291;48.288;16.314;2024-03-23T03:55:01;8.4;;;5.7;;
74741;SDS011;76291;48.288;16.314;2024-03-23T03:55:54;8.4;;;5.7;;
74741;SDS011;76291;48.288;16.314;2024-03-23T03:56:54;8.4;;;5.7;;
74741;SDS011;76291;48.288;16.314;2024-03-23T03:57:54;8.4;;;5.7;;
74741;SDS011;76291;48.288;16.314;2024-03-23T03:58:54;10.9;;;5.6;;
74741;SDS011;76291;48.288;16.314;2024-03-23T03:59:54;10.9;;;5.6;;
74741;SDS011;76291;48.288;16.314;2024-03-23T04:00:54;10.9;;;5.6;;
74741;SDS011;76291;48.288;16.314;2024-03-23T04:01:54;10.9;;;5.6;;
74741;SDS011;76291;48.288;16.314;2024-03-23T04:02:54;10.9;;;5.6;;
74741;SDS011;76291;48.288;16.314;2024-03-23T04:03:54;9.1;;;5.4;;
74741;SDS011;76291;48.288;16.314;2024-03-23T04:04:54;9.1;;;5.4;;
74741;SDS011;76291;48.288;16.314;2024-03-23T04:05:54;9.1;;;5.4;;
74741;SDS011;76291;48.288;16.314;2024-03-23T04:07:01;9.1;;;5.4;;
74741;SDS011;76291;48.288;16.314;2024-03-23T04:07:54;9.1;;;5.4;;
74741;SDS011;76291;48.288;16.314;2024-03-23T04:08:53;8.5;;;5.5;;
74741;SDS011;76291;48.288;16.314;2024-03-23T04:09:54;8.5;;;5.5;;
74741;SDS011;76291;48.288;16.314;2024-03-23T04:10:54;8.5;;;5.5;;
74741;SDS011;76291;48.288;16.314;2024-03-23T04:11:53;8.5;;;5.5;;
74741;SDS011;76291;48.288;16.314;2024-03-23T04:12:53;8.5;;;5.5;;
74741;SDS011;76291;48.288;16.314;2024-03-23T04:13:53;9.2;;;5.3;;
74741;SDS011;76291;48.288;16.314;2024-03-23T04:14:53;9.2;;;5.3;;
74741;SDS011;76291;48.288;16.314;2024-03-23T04:15:54;9.2;;;5.3;;
74741;SDS011;76291;48.288;16.314;2024-03-23T04:16:53;9.2;;;5.3;;
74741;SDS011;76291;48.288;16.314;2024-03-23T04:17:53;9.2;;;5.3;;
74741;SDS011;76291;48.288;16.314;2024-03-23T04:18:53;7.3;;;5.0;;
74741;SDS011;76291;48.288;16.314;2024-03-23T04:19:53;7.3;;;5.0;;
74741;SDS011;76291;48.288;16.314;2024-03-23T04:20:53;7.3;;;5.0;;
74741;SDS011;76291;48.288;16.314;2024-03-23T04:21:53;7.3;;;5.0;;
74741;SDS011;76291;48.288;16.314;2024-03-23T04:22:53;7.3;;;5.0;;
74741;SDS011;76291;48.288;16.314;2024-03-23T04:23:53;9.0;;;5.5;;
74741;SDS011;76291;48.288;16.314;2024-03-23T04:24:54;9.0;;;5.5;;
74741;SDS011;76291;48.288;16.314;2024-03-23T04:25:53;9.0;;;5.5;;
74741;SDS011;76291;48.288;16.314;2024-03-23T04:26:53;9.0;;;5.5;;
74741;SDS011;76291;48.288;16.314;2024-03-23T04:27:53;9.0;;;5.5;;
74741;SDS011;76291;48.288;16.314;2024-03-23T04:28:53;7.7;;;5.0;;
74741;SDS011;76291;48.288;16.314;2024-03-23T04:29:53;7.7;;;5.0;;
74741;SDS011;76291;48.288;16.314;2024-03-23T04:30:53;7.7;;;5.0;;
74741;SDS011;76291;48.288;16.314;2024-03-23T04:31:53;7.7;;;5.0;;
74741;SDS011;76291;48.288;16.314;2024-03-23T04:32:53;7.7;;;5.0;;
74741;SDS011;76291;48.288;16.314;2024-03-23T04:33:53;8.4;;;5.6;;
74741;SDS011;76291;48.288;16.314;2024-03-23T04:34:53;8.4;;;5.6;;
74741;SDS011;76291;48.288;16.314;2024-03-23T04:35:53;8.4;;;5.6;;
74741;SDS011;76291;48.288;16.314;2024-03-23T04:36:53;8.4;;;5.6;;
74741;SDS011;76291;48.288;16.314;2024-03-23T04:37:53;8.4;;;5.6;;
74741;SDS011;76291;48.288;16.314;2024-03-23T04:38:53;6.8;;;5.2;;
74741;SDS011;76291;48.288;16.314;2024-03-23T04:39:53;6.8;;;5.2;;
74741;SDS011;76291;48.288;16.314;2024-03-23T04:40:57;6.8;;;5.2;;
74741;SDS011;76291;48.288;16.314;2024-03-23T04:41:52;6.8;;;5.2;;
74741;SDS011;76291;48.288;16.314;2024-03-23T04:42:53;6.8;;;5.2;;
74741;SDS011;76291;48.288;16.314;2024-03-23T04:43:52;9.2;;;5.8;;
74741;SDS011;76291;48.288;16.314;2024-03-23T04:44:52;9.2;;;5.8;;
74741;SDS011;76291;48.288;16.314;2024-03-23T04:45:52;9.2;;;5.8;;
74741;SDS011;76291;48.288;16.314;2024-03-23T04:46:52;9.2;;;5.8;;
74741;SDS011;76291;48.288;16.314;2024-03-23T04:47:52;9.2;;;5.8;;
74741;SDS011;76291;48.288;16.314;2024-03-23T04:48:52;7.7;;;5.6;;
74741;SDS011;76291;48.288;16.314;2024-03-23T04:49:52;7.7;;;5.6;;
74741;SDS011;76291;48.288;16.314;2024-03-23T04:50:55;7.7;;;5.6;;
74741;SDS011;76291;48.288;16.314;2024-03-23T04:51:52;7.7;;;5.6;;
74741;SDS011;76291;48.288;16.314;2024-03-23T04:52:52;7.7;;;5.6;;
74741;SDS011;76291;48.288;16.314;2024-03-23T04:53:52;6.9;;;5.5;;
74741;SDS011;76291;48.288;16.314;2024-03-23T04:54:52;6.9;;;5.5;;
74741;SDS011;76291;48.288;16.314;2024-03-23T04:55:52;6.9;;;5.5;;
74741;SDS011;76291;48.288;16.314;2024-03-23T04:56:52;6.9;;;5.5;;
74741;SDS011;76291;48.288;16.314;2024-03-23T04:57:52;6.9;;;5.5;;
74741;SDS011;76291;48.288;16.314;2024-03-23T04:58:52;7.8;;;5.9;;
74741;SDS011;76291;48.288;16.314;2024-03-23T04:59:52;7.8;;;5.9;;
74741;SDS011;76291;48.288;16.314;2024-03-23T05:00:55;7.8;;;5.9;;
74741;SDS011;76291;48.288;16.314;2024-03-23T05:01:52;7.8;;;5.9;;
74741;SDS011;76291;48.288;16.314;2024-03-23T05:02:52;7.8;;;5.9;;
74741;SDS011;76291;48.288;16.314;2024-03-23T05:03:53;9.0;;;6.7;;
74741;SDS011;76291;48.288;16.314;2024-03-23T05:04:52;9.0;;;6.7;;
74741;SDS011;76291;48.288;16.314;2024-03-23T05:05:52;9.0;;;6.7;;
74741;SDS011;76291;48.288;16.314;2024-03-23T05:06:52;9.0;;;6.7;;
74741;SDS011;76291;48.288;16.314;2024-03-23T05:07:52;9.0;;;6.7;;
74741;SDS011;76291;48.288;16.314;2024-03-23T05:08:52;10.3;;;6.5;;
74741;SDS011;76291;48.288;16.314;2024-03-23T05:09:52;10.3;;;6.5;;
74741;SDS011;76291;48.288;16.314;2024-03-23T05:10:52;10.3;;;6.5;;
74741;SDS011;76291;48.288;16.314;2024-03-23T05:11:52;10.3;;;6.5;;
74741;SDS011;76291;48.288;16.314;2024-03-23T05:12:52;10.3;;;6.5;;
74741;SDS011;76291;48.288;16.314;2024-03-23T05:13:52;8.3;;;6.5;;
74741;SDS011;76291;48.288;16.314;2024-03-23T05:14:52;8.3;;;6.5;;
74741;SDS011;76291;48.288;16.314;2024-03-23T05:15:53;8.3;;;6.5;;
74741;SDS011;76291;48.288;16.314;2024-03-23T05:16:52;8.3;;;6.5;;
74741;SDS011;76291;48.288;16.314;2024-03-23T05:17:51;8.3;;;6.5;;
74741;SDS011;76291;48.288;16.314;2024-03-23T05:18:51;9.7;;;6.4;;
74741;SDS011;76291;48.288;16.314;2024-03-23T05:19:53;9.7;;;6.4;;
74741;SDS011;76291;48.288;16.314;2024-03-23T05:20:57;9.7;;;6.4;;
74741;SDS011;76291;48.288;16.314;2024-03-23T05:21:51;9.7;;;6.4;;
74741;SDS011;76291;48.288;16.314;2024-03-23T05:22:51;9.7;;;6.4;;
74741;SDS011;76291;48.288;16.314;2024-03-23T05:23:51;9.0;;;6.5;;
74741;SDS011;76291;48.288;16.314;2024-03-23T05:24:51;9.0;;;6.5;;
74741;SDS011;76291;48.288;16.314;2024-03-23T05:25:52;9.0;;;6.5;;
74741;SDS011;76291;48.288;16.314;2024-03-23T05:26:51;9.0;;;6.5;;
74741;SDS011;76291;48.288;16.314;2024-03-23T05:27:51;9.0;;;6.5;;
74741;SDS011;76291;48.288;16.314;2024-03-23T05:28:51;9.3;;;6.3;;
74741;SDS011;76291;48.288;16.314;2024-03-23T05:29:51;9.3;;;6.3;;
74741;SDS011;76291;48.288;16.314;2024-03-23T05:30:52;9.3;;;6.3;;
74741;SDS011;76291;48.288;16.314;2024-03-23T05:31:51;9.3;;;6.3;;
74741;SDS011;76291;48.288;16.314;2024-03-23T05:32:51;9.3;;;6.3;;
74741;SDS011;76291;48.288;16.314;2024-03-23T05:33:51;7.0;;;5.6;;
74741;SDS011;76291;48.288;16.314;2024-03-23T05:34:51;7.0;;;5.6;;
74741;SDS011;76291;48.288;16.314;2024-03-23T05:36:00;7.0;;;5.6;;
74741;SDS011;76291;48.288;16.314;2024-03-23T05:36:51;7.0;;;5.6;;
74741;SDS011;76291;48.288;16.314;2024-03-23T05:37:51;7.0;;;5.6;;
74741;SDS011;76291;48.288;16.314;2024-03-23T05:38:51;9.5;;;5.5;;
74741;SDS011;76291;48.288;16.314;2024-03-23T05:39:51;9.5;;;5.5;;
74741;SDS011;76291;48.288;16.314;2024-03-23T05:40:59;9.5;;;5.5;;
74741;SDS011;76291;48.288;16.314;2024-03-23T05:41:51;9.5;;;5.5;;
74741;SDS011;76291;48.288;16.314;2024-03-23T05:42:51;9.5;;;5.5;;
74741;SDS011;76291;48.288;16.314;2024-03-23T05:43:51;9.3;;;5.5;;
74741;SDS011;76291;48.288;16.314;2024-03-23T05:44:51;9.3;;;5.5;;
74741;SDS011;76291;48.288;16.314;2024-03-23T05:45:59;9.3;;;5.5;;
74741;SDS011;76291;48.288;16.314;2024-03-23T05:46:51;9.3;;;5.5;;
74741;SDS011;76291;48.288;16.314;2024-03-23T05:47:51;9.3;;;5.5;;
74741;SDS011;76291;48.288;16.314;2024-03-23T05:48:51;8.8;;;5.4;;
74741;SDS011;76291;48.288;16.314;2024-03-23T05:49:51;8.8;;;5.4;;
74741;SDS011;76291;48.288;16.314;2024-03-23T05:50:51;8.8;;;5.4;;
74741;SDS011;76291;48.288;16.314;2024-03-23T05:51:50;8.8;;;5.4;;
74741;SDS011;76291;48.288;16.314;2024-03-23T05:52:50;8.8;;;5.4;;
74741;SDS011;76291;48.288;16.314;2024-03-23T05:53:50;8.0;;;5.3;;
74741;SDS011;76291;48.288;16.314;2024-03-23T05:54:51;8.0;;;5.3;;
74741;SDS011;76291;48.288;16.314;2024-03-23T05:55:51;8.0;;;5.3;;
74741;SDS011;76291;48.288;16.314;2024-03-23T05:56:54;8.0;;;5.3;;
74741;SDS011;76291;48.288;16.314;2024-03-23T05:57:51;8.0;;;5.3;;
74741;SDS011;76291;48.288;16.314;2024-03-23T05:58:50;8.0;;;5.1;;
74741;SDS011;76291;48.288;16.314;2024-03-23T05:59:51;8.0;;;5.1;;
74741;SDS011;76291;48.288;16.314;2024-03-23T06:00:56;8.0;;;5.1;;
74741;SDS011;76291;48.288;16.314;2024-03-23T06:01:50;8.0;;;5.1;;
74741;SDS011;76291;48.288;16.314;2024-03-23T06:02:50;8.0;;;5.1;;
74741;SDS011;76291;48.288;16.314;2024-03-23T06:03:50;8.1;;;4.9;;
74741;SDS011;76291;48.288;16.314;2024-03-23T06:04:50;8.1;;;4.9;;
74741;SDS011;76291;48.288;16.314;2024-03-23T06:05:51;8.1;;;4.9;;
74741;SDS011;76291;48.288;16.314;2024-03-23T06:06:51;8.1;;;4.9;;
74741;SDS011;76291;48.288;16.314;2024-03-23T06:07:50;8.1;;;4.9;;
74741;SDS011;76291;48.288;16.314;2024-03-23T06:08:50;7.5;;;4.8;;
74741;SDS011;76291;48.288;16.314;2024-03-23T06:09:50;7.5;;;4.8;;
74741;SDS011;76291;48.288;16.314;2024-03-23T06:10:50;7.5;;;4.8;;
74741;SDS011;76291;48.288;16.314;2024-03-23T06:11:50;7.5;;;4.8;;
74741;SDS011;76291;48.288;16.314;2024-03-23T06:12:50;7.5;;;4.8;;
74741;SDS011;76291;48.288;16.314;2024-03-23T06:13:50;6.2;;;5.0;;
74741;SDS011;76291;48.288;16.314;2024-03-23T06:14:50;6.2;;;5.0;;
74741;SDS011;76291;48.288;16.314;2024-03-23T06:15:50;6.2;;;5.0;;
74741;SDS011;76291;48.288;16.314;2024-03-23T06:16:50;6.2;;;5.0;;
74741;SDS011;76291;48.288;16.314;2024-03-23T06:17:50;6.2;;;5.0;;
74741;SDS011;76291;48.288;16.314;2024-03-23T06:18:50;8.0;;;5.2;;
74741;SDS011;76291;48.288;16.314;2024-03-23T06:19:50;8.0;;;5.2;;
74741;SDS011;76291;48.288;16.314;2024-03-23T06:20:50;8.0;;;5.2;;
74741;SDS011;76291;48.288;16.314;2024-03-23T06:21:50;8.0;;;5.2;;
74741;SDS011;76291;48.288;16.314;2024-03-23T06:22:49;8.0;;;5.2;;
74741;SDS011;76291;48.288;16.314;2024-03-23T06:23:52;9.1;;;5.6;;
74741;SDS011;76291;48.288;16.314;2024-03-23T06:24:49;9.1;;;5.6;;
74741;SDS011;76291;48.288;16.314;2024-03-23T06:25:49;9.1;;;5.6;;
74741;SDS011;76291;48.288;16.314;2024-03-23T06:26:49;9.1;;;5.6;;
74741;SDS011;76291;48.288;16.314;2024-03-23T06:27:49;9.1;;;5.6;;
74741;SDS011;76291;48.288;16.314;2024-03-23T06:28:50;8.2;;;5.8;;
74741;SDS011;76291;48.288;16.314;2024-03-23T06:29:49;8.2;;;5.8;;
74741;SDS011;76291;48.288;16.314;2024-03-23T06:30:49;8.2;;;5.8;;
74741;SDS011;76291;48.288;16.314;2024-03-23T06:31:54;8.2;;;5.8;;
74741;SDS011;76291;48.288;16.314;2024-03-23T06:32:49;8.2;;;5.8;;
74741;SDS011;76291;48.288;16.314;2024-03-23T06:33:49;8.6;;;6.1;;
74741;SDS011;76291;48.288;16.314;2024-03-23T06:34:49;8.6;;;6.1;;
74741;SDS011;76291;48.288;16.314;2024-03-23T06:35:50;8.6;;;6.1;;
74741;SDS011;76291;48.288;16.314;2024-03-23T06:36:49;8.6;;;6.1;;
74741;SDS011;76291;48.288;16.314;2024-03-23T06:37:49;8.6;;;6.1;;
74741;SDS011;76291;48.288;16.314;2024-03-23T06:38:49;9.6;;;7.0;;
74741;SDS011;76291;48.288;16.314;2024-03-23T06:39:49;9.6;;;7.0;;
74741;SDS011;76291;48.288;16.314;2024-03-23T06:40:49;9.6;;;7.0;;
74741;SDS011;76291;48.288;16.314;2024-03-23T06:41:53;9.6;;;7.0;;
74741;SDS011;76291;48.288;16.314;2024-03-23T06:42:49;9.6;;;7.0;;
74741;SDS011;76291;48.288;16.314;2024-03-23T06:43:49;13.6;;;9.4;;
74741;SDS011;76291;48.288;16.314;2024-03-23T06:44:49;13.6;;;9.4;;
74741;SDS011;76291;48.288;16.314;2024-03-23T06:45:53;13.6;;;9.4;;
74741;SDS011;76291;48.288;16.314;2024-03-23T06:46:49;13.6;;;9.4;;
74741;SDS011;76291;48.288;16.314;2024-03-23T06:47:49;13.6;;;9.4;;
74741;SDS011;76291;48.288;16.314;2024-03-23T06:48:50;20.1;;;13.2;;
74741;SDS011;76291;48.288;16.314;2024-03-23T06:49:49;20.1;;;13.2;;
74741;SDS011;76291;48.288;16.314;2024-03-23T06:50:49;20.1;;;13.2;;
74741;SDS011;76291;48.288;16.314;2024-03-23T06:51:49;20.1;;;13.2;;
74741;SDS011;76291;48.288;16.314;2024-03-23T06:52:49;20.1;;;13.2;;
74741;SDS011;76291;48.288;16.314;2024-03-23T06:53:49;23.0;;;16.2;;
74741;SDS011;76291;48.288;16.314;2024-03-23T06:54:49;23.0;;;16.2;;
74741;SDS011;76291;48.288;16.314;2024-03-23T06:55:51;23.0;;;16.2;;
74741;SDS011;76291;48.288;16.314;2024-03-23T06:56:51;23.0;;;16.2;;
74741;SDS011;76291;48.288;16.314;2024-03-23T06:57:48;23.0;;;16.2;;
74741;SDS011;76291;48.288;16.314;2024-03-23T06:58:48;23.7;;;17.3;;
74741;SDS011;76291;48.288;16.314;2024-03-23T06:59:48;23.7;;;17.3;;
74741;SDS011;76291;48.288;16.314;2024-03-23T07:00:49;23.7;;;17.3;;